createdAt,value
2023-02-21T00:02:26.024Z,36.50
2023-02-21T00:07:48.079Z,36.60
2023-02-21T00:13:10.135Z,38.20
2023-02-21T00:18:30.330Z,38.30
2023-02-21T00:23:52.869Z,38.33
2023-02-21T00:29:14.220Z,36.97
2023-02-21T00:34:34.495Z,36.25
2023-02-21T00:39:54.721Z,34.55
2023-02-21T00:45:16.647Z,35.30
2023-02-21T00:50:36.832Z,36.03
2023-02-21T00:55:57.499Z,36.95
2023-02-21T01:01:19.436Z,34.67
2023-02-21T01:06:40.581Z,37.55
2023-02-21T01:12:01.300Z,37.03
2023-02-21T01:17:22.992Z,37.50
2023-02-21T01:22:43.157Z,37.47
2023-02-21T01:28:03.260Z,36.55
2023-02-21T01:33:25.069Z,39.60
2023-02-21T01:38:45.388Z,39.97
2023-02-21T01:44:17.732Z,38.22
2023-02-21T01:49:39.660Z,37.30
2023-02-21T01:55:03.573Z,36.97
2023-02-21T02:00:28.492Z,39.35
2023-02-21T02:05:50.267Z,37.22
2023-02-21T02:11:23.602Z,38.72
2023-02-21T02:16:34.388Z,34.97
2023-02-21T02:22:11.094Z,32.80
2023-02-21T02:27:41.812Z,34.13
2023-02-21T02:33:12.822Z,34.10
2023-02-21T02:38:25.384Z,28.77
2023-02-21T02:43:34.035Z,27.58
2023-02-21T02:48:40.786Z,26.02
2023-02-21T02:53:45.209Z,24.50
2023-02-21T02:58:52.732Z,23.00
2023-02-21T03:04:11.430Z,22.52
2023-02-21T03:09:19.693Z,21.85
2023-02-21T03:14:27.176Z,20.13
2023-02-21T03:19:34.179Z,20.05
2023-02-21T03:24:41.796Z,20.52
2023-02-21T03:29:44.983Z,22.33
2023-02-21T03:34:48.352Z,21.60
2023-02-21T03:39:55.657Z,20.40
2023-02-21T03:44:58.555Z,21.80
2023-02-21T03:50:01.555Z,21.63
2023-02-21T03:55:06.771Z,18.08
2023-02-21T04:00:11.375Z,17.05
2023-02-21T04:05:19.849Z,18.55
2023-02-21T04:10:26.275Z,17.92
2023-02-21T04:15:30.169Z,19.05
2023-02-21T04:20:33.421Z,24.83
2023-02-21T04:25:39.697Z,20.17
2023-02-21T04:30:49.688Z,19.90
2023-02-21T04:35:53.059Z,18.25
2023-02-21T04:41:02.135Z,20.63
2023-02-21T04:46:06.122Z,19.20
2023-02-21T04:51:15.907Z,19.63
2023-02-21T04:56:22.438Z,20.95
2023-02-21T05:01:30.695Z,20.48
2023-02-21T05:06:33.583Z,20.08
2023-02-21T05:11:37.820Z,19.55
2023-02-21T05:16:40.643Z,20.08
2023-02-21T05:21:44.659Z,19.02
2023-02-21T05:26:48.734Z,19.55
2023-02-21T05:31:51.437Z,19.92
2023-02-21T05:36:54.229Z,19.30
2023-02-21T05:41:58.393Z,20.52
2023-02-21T05:47:02.305Z,18.88
2023-02-21T05:52:06.357Z,19.55
2023-02-21T05:57:10.461Z,17.98
2023-02-21T06:02:13.186Z,21.45
2023-02-21T06:07:15.954Z,19.83
2023-02-21T06:12:20.053Z,21.38
2023-02-21T06:17:22.965Z,18.85
2023-02-21T06:22:25.988Z,19.95
2023-02-21T06:27:30.077Z,20.65
2023-02-21T06:32:33.301Z,18.80
2023-02-21T06:37:36.189Z,18.40
2023-02-21T06:42:40.589Z,18.02
2023-02-21T06:47:43.376Z,16.55
2023-02-21T06:52:46.117Z,19.10
2023-02-21T06:57:50.456Z,19.85
2023-02-21T07:02:53.863Z,19.98
2023-02-21T07:07:56.728Z,20.67
2023-02-21T07:13:00.884Z,22.17
2023-02-21T07:18:04.273Z,18.38
2023-02-21T07:23:07.193Z,19.75
2023-02-21T07:28:11.720Z,19.25
2023-02-21T07:33:15.252Z,20.70
2023-02-21T07:38:22.144Z,21.60
2023-02-21T07:43:27.873Z,24.90
2023-02-21T07:48:32.403Z,19.92
2023-02-21T07:53:35.522Z,20.70
2023-02-21T07:58:39.648Z,21.50
2023-02-21T08:03:42.534Z,24.33
2023-02-21T08:08:46.349Z,24.15
2023-02-21T08:13:51.413Z,20.33
2023-02-21T08:18:54.152Z,19.65
2023-02-21T08:23:56.989Z,19.73
2023-02-21T08:29:01.044Z,17.77
2023-02-21T08:34:04.005Z,19.52
2023-02-21T08:39:08.293Z,18.38
2023-02-21T08:44:14.389Z,18.98
2023-02-21T08:49:17.400Z,17.20
2023-02-21T08:54:20.380Z,18.60
2023-02-21T08:59:24.553Z,17.90
2023-02-21T09:04:28.348Z,16.40
2023-02-21T09:09:31.105Z,18.27
2023-02-21T09:14:35.813Z,17.88
2023-02-21T09:19:38.831Z,15.57
2023-02-21T09:24:42.976Z,18.20
2023-02-21T09:29:48.342Z,15.43
2023-02-21T09:34:52.813Z,16.10
2023-02-21T09:39:56.233Z,16.38
2023-02-21T09:45:03.176Z,15.32
2023-02-21T09:50:14.049Z,15.40
2023-02-21T09:55:32.606Z,15.48
2023-02-21T10:00:38.439Z,16.17
2023-02-21T10:05:46.661Z,15.10
2023-02-21T10:10:54.959Z,15.65
2023-02-21T10:16:04.305Z,16.02
2023-02-21T10:21:16.153Z,14.52
2023-02-21T10:26:25.672Z,14.93
2023-02-21T10:31:35.215Z,14.05
2023-02-21T10:36:38.313Z,32.13
2023-02-21T10:41:43.329Z,13.73
2023-02-21T10:46:55.969Z,13.45
2023-02-21T10:52:18.110Z,12.35
2023-02-21T10:57:20.880Z,11.73
2023-02-21T11:02:34.259Z,12.75
2023-02-21T11:07:39.433Z,9.30
2023-02-21T11:12:42.250Z,10.88
2023-02-21T11:17:47.475Z,11.10
2023-02-21T11:22:51.585Z,11.68
2023-02-21T11:28:04.069Z,10.88
2023-02-21T11:33:10.280Z,11.32
2023-02-21T11:38:35.857Z,10.60
2023-02-21T11:43:48.092Z,10.88
2023-02-21T11:49:02.109Z,11.65
2023-02-21T11:54:06.264Z,10.50
2023-02-21T11:59:21.564Z,9.85
2023-02-21T12:04:41.555Z,9.57
2023-02-21T12:09:51.998Z,8.65
2023-02-21T12:15:05.052Z,8.85
2023-02-21T12:20:24.051Z,7.88
2023-02-21T12:25:34.542Z,8.85
2023-02-21T12:30:53.557Z,6.45
2023-02-21T12:36:16.608Z,6.85
2023-02-21T12:41:39.000Z,7.25
2023-02-21T12:46:46.596Z,9.65
2023-02-21T12:51:57.543Z,9.88
2023-02-21T12:57:06.454Z,8.38
2023-02-21T13:02:18.440Z,8.07
2023-02-21T13:07:32.679Z,8.00
2023-02-21T13:12:42.760Z,5.45
2023-02-21T13:17:52.699Z,6.53
2023-02-21T13:23:17.001Z,7.35
2023-02-21T13:28:23.587Z,5.28
2023-02-21T13:33:30.512Z,5.38
2023-02-21T13:38:35.727Z,5.43
2023-02-21T13:43:46.630Z,5.30
2023-02-21T13:49:32.543Z,4.22
2023-02-21T13:54:37.457Z,5.07
2023-02-21T13:59:40.567Z,4.13
2023-02-21T14:05:03.799Z,3.85
2023-02-21T14:10:21.096Z,5.22
2023-02-21T14:15:24.603Z,4.57
2023-02-21T14:20:27.821Z,4.40
2023-02-21T14:25:35.430Z,4.30
2023-02-21T14:30:38.536Z,4.75
2023-02-21T14:35:48.832Z,3.53
2023-02-21T14:41:06.837Z,5.03
2023-02-21T14:46:32.539Z,4.63
2023-02-21T14:51:59.371Z,4.03
2023-02-21T15:02:24.952Z,4.53
2023-02-21T15:07:34.782Z,4.57
2023-02-21T15:12:42.940Z,5.65
2023-02-21T15:17:55.253Z,4.60
2023-02-21T15:23:01.364Z,4.97
2023-02-21T15:28:09.048Z,5.03
2023-02-21T15:33:17.190Z,5.45
2023-02-21T15:38:24.989Z,7.80
2023-02-21T15:43:42.286Z,3.47
2023-02-21T15:48:45.668Z,4.53
2023-02-21T15:54:09.899Z,3.42
2023-02-21T15:59:19.955Z,3.53
2023-02-21T16:04:26.796Z,3.35
2023-02-21T16:37:11.904Z,3.22
2023-02-21T16:43:02.757Z,4.05
2023-02-21T16:55:11.698Z,5.28
2023-02-21T17:01:09.986Z,6.32
2023-02-21T17:06:39.477Z,4.60
2023-02-21T17:18:39.237Z,6.35
2023-02-21T17:24:05.401Z,6.45
2023-02-21T17:30:08.224Z,5.40
2023-02-21T17:42:37.763Z,6.35
2023-02-21T17:47:46.113Z,5.35
2023-02-21T17:52:48.968Z,8.07
2023-02-21T17:57:51.876Z,7.35
2023-02-21T18:02:57.573Z,8.77
2023-02-21T18:08:00.597Z,8.13
2023-02-21T18:13:03.321Z,9.45
2023-02-21T18:18:08.399Z,7.55
2023-02-21T18:23:11.136Z,7.93
2023-02-21T18:28:13.912Z,7.18
2023-02-21T18:33:18.664Z,6.97
2023-02-21T18:38:21.848Z,6.80
2023-02-21T18:43:27.078Z,7.35
2023-02-21T18:48:31.305Z,5.78
2023-02-21T18:53:34.144Z,7.28
2023-02-21T18:58:37.386Z,7.18
2023-02-21T19:03:41.699Z,8.27
2023-02-21T19:08:46.627Z,7.50
2023-02-21T19:13:50.377Z,9.43
2023-02-21T19:18:57.158Z,12.98
2023-02-21T19:24:00.400Z,10.30
2023-02-21T19:29:03.260Z,10.00
2023-02-21T19:34:10.160Z,13.70
2023-02-21T19:44:18.337Z,11.78
2023-02-21T19:49:22.784Z,14.43
2023-02-21T19:54:26.974Z,16.40
2023-02-21T19:59:30.896Z,15.90
2023-02-21T20:04:37.198Z,16.08
2023-02-21T20:09:42.309Z,14.83
2023-02-21T20:14:49.277Z,13.68
2023-02-21T20:24:59.934Z,13.57
2023-02-21T20:30:07.373Z,13.55
2023-02-21T20:35:13.934Z,13.38
2023-02-21T20:40:19.288Z,13.73
2023-02-21T20:45:25.389Z,12.65
2023-02-21T20:50:30.551Z,11.70
2023-02-21T20:55:37.570Z,10.45
2023-02-21T21:00:41.927Z,13.15
2023-02-21T21:05:48.192Z,12.82
2023-02-21T21:10:51.136Z,14.13
2023-02-21T21:15:54.219Z,14.68
2023-02-21T21:20:58.779Z,13.98
2023-02-21T21:26:02.646Z,12.77
2023-02-21T21:31:05.995Z,12.38
2023-02-21T21:36:11.337Z,10.77
2023-02-21T21:41:15.512Z,10.48
2023-02-21T21:46:19.796Z,11.15
2023-02-21T21:51:29.035Z,10.13
2023-02-21T21:56:33.728Z,12.05
2023-02-21T22:01:36.949Z,13.27
2023-02-21T22:06:41.439Z,10.40
2023-02-21T22:11:46.516Z,10.50
2023-02-21T22:16:50.949Z,11.45
2023-02-21T22:21:55.650Z,10.30
2023-02-21T22:26:58.804Z,10.32
2023-02-21T22:32:01.560Z,10.82
2023-02-21T22:37:05.711Z,9.98
2023-02-21T22:42:09.172Z,10.07
2023-02-21T22:47:12.081Z,8.90
2023-02-21T22:52:16.252Z,10.50
2023-02-21T22:57:19.151Z,9.80
2023-02-21T23:02:22.616Z,10.73
2023-02-21T23:07:26.847Z,9.93
2023-02-21T23:12:29.605Z,8.98
2023-02-21T23:17:34.009Z,9.60
2023-02-21T23:22:38.031Z,8.48
2023-02-21T23:27:40.756Z,7.45
2023-02-21T23:32:44.330Z,8.82
2023-02-21T23:37:49.313Z,7.35
2023-02-21T23:42:54.830Z,8.20
2023-02-21T23:47:57.924Z,8.75
2023-02-21T23:53:03.331Z,10.05
2023-02-21T23:58:10.512Z,7.60
